sensor_id;sensor_type;location;lat;lon;timestamp;pressure;altitude;pressure_sealevel;temperature;humidity
54870;BME280;40756;-37.950;145.008;2023-12-20T00:00:10;101763.48;;;17.46;33.47
54870;BME280;40756;-37.950;145.008;2023-12-20T00:02:40;101759.74;;;18.14;32.60
54870;BME280;40756;-37.950;145.008;2023-12-20T00:05:09;101761.17;;;17.74;33.08
54870;BME280;40756;-37.950;145.008;2023-12-20T00:07:39;101763.52;;;17.43;33.01
54870;BME280;40756;-37.950;145.008;2023-12-20T00:10:09;101761.40;;;18.15;31.71
54870;BME280;40756;-37.950;145.008;2023-12-20T00:12:39;101755.33;;;17.16;33.12
54870;BME280;40756;-37.950;145.008;2023-12-20T00:15:09;101755.04;;;17.00;33.10
54870;BME280;40756;-37.950;145.008;2023-12-20T00:17:39;101751.04;;;18.13;32.09
54870;BME280;40756;-37.950;145.008;2023-12-20T00:20:09;101753.38;;;16.78;32.27
54870;BME280;40756;-37.950;145.008;2023-12-20T00:22:38;101754.80;;;17.16;31.74
54870;BME280;40756;-37.950;145.008;2023-12-20T00:25:08;101749.08;;;17.71;31.91
54870;BME280;40756;-37.950;145.008;2023-12-20T00:27:37;101751.36;;;17.74;31.68
54870;BME280;40756;-37.950;145.008;2023-12-20T00:30:08;101747.17;;;17.35;32.45
54870;BME280;40756;-37.950;145.008;2023-12-20T00:32:38;101746.32;;;18.71;31.16
54870;BME280;40756;-37.950;145.008;2023-12-20T00:35:08;101744.54;;;18.43;31.91
54870;BME280;40756;-37.950;145.008;2023-12-20T00:37:37;101745.47;;;18.07;32.56
54870;BME280;40756;-37.950;145.008;2023-12-20T00:40:08;101753.21;;;17.05;32.07
54870;BME280;40756;-37.950;145.008;2023-12-20T00:42:37;101753.49;;;17.77;31.82
54870;BME280;40756;-37.950;145.008;2023-12-20T00:45:07;101745.94;;;17.76;31.85
54870;BME280;40756;-37.950;145.008;2023-12-20T00:47:37;101749.82;;;17.95;31.55
54870;BME280;40756;-37.950;145.008;2023-12-20T00:50:08;101748.84;;;17.95;32.65
54870;BME280;40756;-37.950;145.008;2023-12-20T00:52:38;101751.55;;;18.21;32.76
54870;BME280;40756;-37.950;145.008;2023-12-20T00:55:08;101746.55;;;18.55;32.51
54870;BME280;40756;-37.950;145.008;2023-12-20T00:57:38;101748.28;;;18.83;31.14
54870;BME280;40756;-37.950;145.008;2023-12-20T01:00:08;101747.03;;;17.55;33.50
54870;BME280;40756;-37.950;145.008;2023-12-20T01:02:37;101742.89;;;18.98;33.57
54870;BME280;40756;-37.950;145.008;2023-12-20T01:05:07;101749.69;;;18.82;32.72
54870;BME280;40756;-37.950;145.008;2023-12-20T01:07:39;101748.11;;;18.46;34.91
54870;BME280;40756;-37.950;145.008;2023-12-20T01:10:09;101745.42;;;18.43;34.87
54870;BME280;40756;-37.950;145.008;2023-12-20T01:12:39;101751.29;;;18.61;36.21
54870;BME280;40756;-37.950;145.008;2023-12-20T01:15:09;101747.20;;;19.57;34.73
54870;BME280;40756;-37.950;145.008;2023-12-20T01:17:39;101749.85;;;19.08;35.26
54870;BME280;40756;-37.950;145.008;2023-12-20T01:20:09;101743.77;;;19.38;35.96
54870;BME280;40756;-37.950;145.008;2023-12-20T01:22:38;101752.53;;;18.98;34.97
54870;BME280;40756;-37.950;145.008;2023-12-20T01:25:08;101748.30;;;18.93;35.75
54870;BME280;40756;-37.950;145.008;2023-12-20T01:27:38;101746.14;;;19.23;35.84
54870;BME280;40756;-37.950;145.008;2023-12-20T01:30:08;101744.85;;;19.09;34.99
54870;BME280;40756;-37.950;145.008;2023-12-20T01:32:38;101739.66;;;19.28;35.74
54870;BME280;40756;-37.950;145.008;2023-12-20T01:35:08;101742.56;;;19.37;35.33
54870;BME280;40756;-37.950;145.008;2023-12-20T01:37:38;101742.90;;;19.69;35.88
54870;BME280;40756;-37.950;145.008;2023-12-20T01:40:08;101736.72;;;19.57;36.59
54870;BME280;40756;-37.950;145.008;2023-12-20T01:42:37;101740.76;;;19.70;36.79
54870;BME280;40756;-37.950;145.008;2023-12-20T01:45:07;101739.52;;;19.96;35.71
54870;BME280;40756;-37.950;145.008;2023-12-20T01:47:37;101736.94;;;19.37;35.39
54870;BME280;40756;-37.950;145.008;2023-12-20T01:50:08;101731.90;;;19.68;35.84
54870;BME280;40756;-37.950;145.008;2023-12-20T01:52:38;101738.57;;;19.74;36.73
54870;BME280;40756;-37.950;145.008;2023-12-20T01:55:08;101730.47;;;18.40;37.53
54870;BME280;40756;-37.950;145.008;2023-12-20T01:57:37;101726.12;;;20.09;36.10
54870;BME280;40756;-37.950;145.008;2023-12-20T02:00:08;101721.27;;;20.17;36.20
54870;BME280;40756;-37.950;145.008;2023-12-20T02:02:39;101717.35;;;19.60;33.22
54870;BME280;40756;-37.950;145.008;2023-12-20T02:05:09;101719.37;;;20.69;30.71
54870;BME280;40756;-37.950;145.008;2023-12-20T02:07:39;101707.09;;;19.42;31.38
54870;BME280;40756;-37.950;145.008;2023-12-20T02:10:09;101709.67;;;20.40;30.68
54870;BME280;40756;-37.950;145.008;2023-12-20T02:12:39;101704.12;;;20.05;30.85
54870;BME280;40756;-37.950;145.008;2023-12-20T02:15:09;101698.11;;;20.58;30.23
54870;BME280;40756;-37.950;145.008;2023-12-20T02:17:40;101698.67;;;19.59;32.10
54870;BME280;40756;-37.950;145.008;2023-12-20T02:20:09;101697.23;;;20.65;32.42
54870;BME280;40756;-37.950;145.008;2023-12-20T02:22:39;101692.85;;;19.35;32.54
54870;BME280;40756;-37.950;145.008;2023-12-20T02:25:09;101685.83;;;21.34;31.02
54870;BME280;40756;-37.950;145.008;2023-12-20T02:27:38;101696.23;;;20.63;32.42
54870;BME280;40756;-37.950;145.008;2023-12-20T02:30:09;101691.83;;;21.28;32.00
54870;BME280;40756;-37.950;145.008;2023-12-20T02:32:39;101702.89;;;21.15;34.05
54870;BME280;40756;-37.950;145.008;2023-12-20T02:35:09;101707.07;;;20.21;35.88
54870;BME280;40756;-37.950;145.008;2023-12-20T02:37:38;101704.89;;;20.54;36.79
54870;BME280;40756;-37.950;145.008;2023-12-20T02:40:09;101693.09;;;21.85;35.84
54870;BME280;40756;-37.950;145.008;2023-12-20T02:42:38;101697.34;;;20.83;36.73
54870;BME280;40756;-37.950;145.008;2023-12-20T02:45:08;101702.71;;;19.96;37.40
54870;BME280;40756;-37.950;145.008;2023-12-20T02:47:38;101693.35;;;20.23;37.82
54870;BME280;40756;-37.950;145.008;2023-12-20T02:50:08;101692.77;;;20.13;37.02
54870;BME280;40756;-37.950;145.008;2023-12-20T02:52:38;101688.76;;;20.66;36.59
54870;BME280;40756;-37.950;145.008;2023-12-20T02:55:07;101688.28;;;20.57;37.49
54870;BME280;40756;-37.950;145.008;2023-12-20T02:57:36;101690.63;;;21.15;37.14
54870;BME280;40756;-37.950;145.008;2023-12-20T03:00:07;101688.24;;;20.62;36.48
54870;BME280;40756;-37.950;145.008;2023-12-20T03:02:36;101682.94;;;22.06;35.67
54870;BME280;40756;-37.950;145.008;2023-12-20T03:05:06;101678.97;;;21.19;36.36
54870;BME280;40756;-37.950;145.008;2023-12-20T03:07:37;101676.48;;;19.54;37.82
54870;BME280;40756;-37.950;145.008;2023-12-20T03:10:07;101669.85;;;20.65;36.58
54870;BME280;40756;-37.950;145.008;2023-12-20T03:12:37;101668.23;;;20.45;38.09
54870;BME280;40756;-37.950;145.008;2023-12-20T03:15:07;101665.86;;;21.68;35.99
54870;BME280;40756;-37.950;145.008;2023-12-20T03:17:37;101661.91;;;20.71;37.14
54870;BME280;40756;-37.950;145.008;2023-12-20T03:20:07;101659.94;;;21.92;36.57
54870;BME280;40756;-37.950;145.008;2023-12-20T03:22:37;101671.64;;;21.23;37.73
54870;BME280;40756;-37.950;145.008;2023-12-20T03:25:07;101663.56;;;21.91;37.34
54870;BME280;40756;-37.950;145.008;2023-12-20T03:27:39;101665.45;;;20.72;38.32
54870;BME280;40756;-37.950;145.008;2023-12-20T03:30:09;101658.23;;;21.60;37.75
54870;BME280;40756;-37.950;145.008;2023-12-20T03:32:39;101660.80;;;21.62;36.04
54870;BME280;40756;-37.950;145.008;2023-12-20T03:35:09;101657.59;;;21.76;35.00
54870;BME280;40756;-37.950;145.008;2023-12-20T03:37:39;101664.30;;;21.08;37.60
54870;BME280;40756;-37.950;145.008;2023-12-20T03:40:09;101663.76;;;21.46;37.91
54870;BME280;40756;-37.950;145.008;2023-12-20T03:42:38;101662.12;;;20.95;37.60
54870;BME280;40756;-37.950;145.008;2023-12-20T03:45:09;101658.00;;;21.72;37.71
54870;BME280;40756;-37.950;145.008;2023-12-20T03:47:38;101657.23;;;22.05;37.14
54870;BME280;40756;-37.950;145.008;2023-12-20T03:50:08;101654.54;;;21.42;37.60
54870;BME280;40756;-37.950;145.008;2023-12-20T03:52:38;101658.59;;;20.27;39.30
54870;BME280;40756;-37.950;145.008;2023-12-20T03:55:07;101658.70;;;22.00;38.28
54870;BME280;40756;-37.950;145.008;2023-12-20T03:57:36;101655.67;;;21.01;39.19
54870;BME280;40756;-37.950;145.008;2023-12-20T04:00:07;101646.42;;;21.66;39.19
54870;BME280;40756;-37.950;145.008;2023-12-20T04:02:37;101633.72;;;21.30;38.97
54870;BME280;40756;-37.950;145.008;2023-12-20T04:05:08;101639.71;;;21.22;39.71
54870;BME280;40756;-37.950;145.008;2023-12-20T04:07:38;101632.01;;;22.14;39.17
54870;BME280;40756;-37.950;145.008;2023-12-20T04:10:08;101640.32;;;21.68;39.32
54870;BME280;40756;-37.950;145.008;2023-12-20T04:12:38;101636.21;;;21.84;38.55
54870;BME280;40756;-37.950;145.008;2023-12-20T04:15:08;101633.38;;;21.91;38.35
54870;BME280;40756;-37.950;145.008;2023-12-20T04:17:38;101630.66;;;22.66;37.38
54870;BME280;40756;-37.950;145.008;2023-12-20T04:20:08;101630.24;;;23.32;37.61
54870;BME280;40756;-37.950;145.008;2023-12-20T04:22:37;101630.43;;;21.51;37.70
54870;BME280;40756;-37.950;145.008;2023-12-20T04:25:07;101632.00;;;22.91;36.99
54870;BME280;40756;-37.950;145.008;2023-12-20T04:27:37;101624.52;;;20.63;39.68
54870;BME280;40756;-37.950;145.008;2023-12-20T04:30:08;101623.18;;;22.29;37.43
54870;BME280;40756;-37.950;145.008;2023-12-20T04:32:37;101618.29;;;22.29;37.16
54870;BME280;40756;-37.950;145.008;2023-12-20T04:35:07;101620.66;;;21.69;38.01
54870;BME280;40756;-37.950;145.008;2023-12-20T04:37:37;101620.90;;;21.10;39.47
54870;BME280;40756;-37.950;145.008;2023-12-20T04:40:07;101615.87;;;21.89;38.64
54870;BME280;40756;-37.950;145.008;2023-12-20T04:42:36;101613.20;;;21.96;38.02
54870;BME280;40756;-37.950;145.008;2023-12-20T04:45:06;101615.05;;;21.35;38.95
54870;BME280;40756;-37.950;145.008;2023-12-20T04:47:36;101609.98;;;22.63;38.48
54870;BME280;40756;-37.950;145.008;2023-12-20T04:50:07;101613.84;;;21.27;39.12
54870;BME280;40756;-37.950;145.008;2023-12-20T04:52:36;101615.61;;;22.08;38.75
54870;BME280;40756;-37.950;145.008;2023-12-20T04:55:06;101612.74;;;22.62;38.68
54870;BME280;40756;-37.950;145.008;2023-12-20T04:57:36;101609.39;;;23.33;36.30
54870;BME280;40756;-37.950;145.008;2023-12-20T05:00:06;101617.13;;;22.39;37.10
54870;BME280;40756;-37.950;145.008;2023-12-20T05:02:36;101615.35;;;21.74;38.75
54870;BME280;40756;-37.950;145.008;2023-12-20T05:05:06;101612.13;;;20.81;40.99
54870;BME280;40756;-37.950;145.008;2023-12-20T05:07:35;101613.59;;;21.18;40.36
54870;BME280;40756;-37.950;145.008;2023-12-20T05:10:05;101615.26;;;21.98;39.86
54870;BME280;40756;-37.950;145.008;2023-12-20T05:12:35;101611.86;;;23.02;38.49
54870;BME280;40756;-37.950;145.008;2023-12-20T05:15:05;101608.27;;;21.45;39.85
54870;BME280;40756;-37.950;145.008;2023-12-20T05:17:35;101616.60;;;21.34;40.34
54870;BME280;40756;-37.950;145.008;2023-12-20T05:20:06;101615.23;;;21.77;40.23
54870;BME280;40756;-37.950;145.008;2023-12-20T05:22:35;101607.73;;;20.76;41.79
54870;BME280;40756;-37.950;145.008;2023-12-20T05:25:05;101607.10;;;19.61;42.62
54870;BME280;40756;-37.950;145.008;2023-12-20T05:27:35;101606.49;;;20.87;41.64
54870;BME280;40756;-37.950;145.008;2023-12-20T05:30:05;101604.16;;;20.93;41.45
54870;BME280;40756;-37.950;145.008;2023-12-20T05:32:35;101603.72;;;20.80;39.77
54870;BME280;40756;-37.950;145.008;2023-12-20T05:35:05;101601.13;;;20.53;40.98
54870;BME280;40756;-37.950;145.008;2023-12-20T05:37:36;101604.31;;;20.54;40.27
54870;BME280;40756;-37.950;145.008;2023-12-20T05:40:06;101605.88;;;19.96;41.30
54870;BME280;40756;-37.950;145.008;2023-12-20T05:42:36;101610.90;;;19.82;41.52
54870;BME280;40756;-37.950;145.008;2023-12-20T05:45:06;101599.32;;;19.97;41.86
54870;BME280;40756;-37.950;145.008;2023-12-20T05:47:35;101610.57;;;19.98;41.98
54870;BME280;40756;-37.950;145.008;2023-12-20T05:50:06;101600.14;;;19.53;42.46
54870;BME280;40756;-37.950;145.008;2023-12-20T05:52:35;101596.04;;;19.56;43.45
54870;BME280;40756;-37.950;145.008;2023-12-20T05:55:05;101579.73;;;20.45;42.13
54870;BME280;40756;-37.950;145.008;2023-12-20T05:57:36;101578.85;;;21.39;41.25
54870;BME280;40756;-37.950;145.008;2023-12-20T06:00:06;101579.66;;;20.87;40.92
54870;BME280;40756;-37.950;145.008;2023-12-20T06:02:36;101587.43;;;20.22;40.93
54870;BME280;40756;-37.950;145.008;2023-12-20T06:05:06;101585.49;;;20.95;40.29
54870;BME280;40756;-37.950;145.008;2023-12-20T06:07:36;101593.94;;;20.73;39.95
54870;BME280;40756;-37.950;145.008;2023-12-20T06:10:06;101591.67;;;20.32;39.56
54870;BME280;40756;-37.950;145.008;2023-12-20T06:12:36;101595.63;;;20.18;40.06
54870;BME280;40756;-37.950;145.008;2023-12-20T06:15:06;101586.12;;;21.24;39.30
54870;BME280;40756;-37.950;145.008;2023-12-20T06:17:35;101582.71;;;21.42;39.28
54870;BME280;40756;-37.950;145.008;2023-12-20T06:20:07;101588.07;;;19.38;42.39
54870;BME280;40756;-37.950;145.008;2023-12-20T06:22:36;101588.18;;;19.86;43.25
54870;BME280;40756;-37.950;145.008;2023-12-20T06:25:06;101585.47;;;20.44;43.29
54870;BME280;40756;-37.950;145.008;2023-12-20T06:27:36;101584.54;;;19.97;42.63
54870;BME280;40756;-37.950;145.008;2023-12-20T06:30:06;101600.34;;;18.17;45.10
54870;BME280;40756;-37.950;145.008;2023-12-20T06:32:35;101583.49;;;19.98;42.11
54870;BME280;40756;-37.950;145.008;2023-12-20T06:35:06;101572.71;;;20.54;41.02
54870;BME280;40756;-37.950;145.008;2023-12-20T06:37:36;101574.25;;;20.72;41.53
54870;BME280;40756;-37.950;145.008;2023-12-20T06:40:07;101581.33;;;19.65;43.92
54870;BME280;40756;-37.950;145.008;2023-12-20T06:42:37;101580.29;;;18.32;45.10
54870;BME280;40756;-37.950;145.008;2023-12-20T06:45:07;101584.45;;;18.46;45.36
54870;BME280;40756;-37.950;145.008;2023-12-20T06:47:36;101584.54;;;17.73;46.20
54870;BME280;40756;-37.950;145.008;2023-12-20T06:50:07;101588.53;;;18.61;45.14
54870;BME280;40756;-37.950;145.008;2023-12-20T06:52:36;101589.46;;;18.75;44.39
54870;BME280;40756;-37.950;145.008;2023-12-20T06:55:06;101584.68;;;18.21;46.26
54870;BME280;40756;-37.950;145.008;2023-12-20T06:57:36;101584.73;;;18.84;44.83
54870;BME280;40756;-37.950;145.008;2023-12-20T07:00:07;101593.14;;;19.32;44.11
54870;BME280;40756;-37.950;145.008;2023-12-20T07:02:36;101587.22;;;18.32;45.41
54870;BME280;40756;-37.950;145.008;2023-12-20T07:05:06;101603.80;;;18.60;44.97
54870;BME280;40756;-37.950;145.008;2023-12-20T07:07:36;101600.53;;;18.19;45.75
54870;BME280;40756;-37.950;145.008;2023-12-20T07:10:06;101603.06;;;18.82;44.89
54870;BME280;40756;-37.950;145.008;2023-12-20T07:12:36;101601.50;;;18.72;45.22
54870;BME280;40756;-37.950;145.008;2023-12-20T07:15:06;101601.03;;;18.13;45.28
54870;BME280;40756;-37.950;145.008;2023-12-20T07:17:35;101611.06;;;18.66;44.38
54870;BME280;40756;-37.950;145.008;2023-12-20T07:20:06;101602.76;;;17.50;46.76
54870;BME280;40756;-37.950;145.008;2023-12-20T07:22:35;101609.76;;;15.98;49.39
54870;BME280;40756;-37.950;145.008;2023-12-20T07:25:05;101615.00;;;17.84;47.69
54870;BME280;40756;-37.950;145.008;2023-12-20T07:27:35;101624.23;;;17.32;48.84
54870;BME280;40756;-37.950;145.008;2023-12-20T07:30:05;101622.41;;;18.04;47.74
54870;BME280;40756;-37.950;145.008;2023-12-20T07:32:35;101618.79;;;16.87;49.98
54870;BME280;40756;-37.950;145.008;2023-12-20T07:35:05;101622.84;;;17.75;49.12
54870;BME280;40756;-37.950;145.008;2023-12-20T07:37:35;101620.94;;;17.72;49.57
54870;BME280;40756;-37.950;145.008;2023-12-20T07:40:05;101620.05;;;17.93;49.69
54870;BME280;40756;-37.950;145.008;2023-12-20T07:42:35;101619.48;;;17.47;49.94
54870;BME280;40756;-37.950;145.008;2023-12-20T07:45:05;101617.10;;;18.15;49.57
54870;BME280;40756;-37.950;145.008;2023-12-20T07:47:35;101619.29;;;18.36;49.05
54870;BME280;40756;-37.950;145.008;2023-12-20T07:50:05;101637.32;;;17.90;50.20
54870;BME280;40756;-37.950;145.008;2023-12-20T07:52:35;101631.34;;;18.38;49.47
54870;BME280;40756;-37.950;145.008;2023-12-20T07:55:05;101630.62;;;17.95;49.15
54870;BME280;40756;-37.950;145.008;2023-12-20T07:57:35;101629.13;;;18.51;49.45
54870;BME280;40756;-37.950;145.008;2023-12-20T08:00:05;101633.68;;;18.32;50.02
54870;BME280;40756;-37.950;145.008;2023-12-20T08:02:35;101640.52;;;17.62;50.12
54870;BME280;40756;-37.950;145.008;2023-12-20T08:05:04;101639.46;;;18.93;48.32
54870;BME280;40756;-37.950;145.008;2023-12-20T08:07:34;101644.41;;;19.08;45.30
54870;BME280;40756;-37.950;145.008;2023-12-20T08:10:03;101642.38;;;18.87;44.07
54870;BME280;40756;-37.950;145.008;2023-12-20T08:12:33;101643.77;;;19.36;45.08
54870;BME280;40756;-37.950;145.008;2023-12-20T08:15:02;101644.84;;;19.87;43.21
54870;BME280;40756;-37.950;145.008;2023-12-20T08:17:32;101645.66;;;19.98;43.12
54870;BME280;40756;-37.950;145.008;2023-12-20T08:20:01;101656.24;;;19.41;42.86
54870;BME280;40756;-37.950;145.008;2023-12-20T08:22:31;101651.44;;;19.38;43.67
54870;BME280;40756;-37.950;145.008;2023-12-20T08:25:00;101660.90;;;19.66;43.13
54870;BME280;40756;-37.950;145.008;2023-12-20T08:27:30;101659.10;;;19.36;43.05
54870;BME280;40756;-37.950;145.008;2023-12-20T08:29:59;101661.24;;;19.60;42.79
54870;BME280;40756;-37.950;145.008;2023-12-20T08:32:28;101663.61;;;18.97;42.86
54870;BME280;40756;-37.950;145.008;2023-12-20T08:34:58;101665.48;;;19.32;42.26
54870;BME280;40756;-37.950;145.008;2023-12-20T08:37:28;101664.88;;;18.77;42.37
54870;BME280;40756;-37.950;145.008;2023-12-20T08:39:58;101670.70;;;19.03;41.74
54870;BME280;40756;-37.950;145.008;2023-12-20T08:42:28;101665.59;;;18.48;42.02
54870;BME280;40756;-37.950;145.008;2023-12-20T08:44:58;101667.35;;;18.76;41.20
54870;BME280;40756;-37.950;145.008;2023-12-20T08:47:27;101673.44;;;19.35;40.82
54870;BME280;40756;-37.950;145.008;2023-12-20T08:49:57;101679.41;;;19.00;40.82
54870;BME280;40756;-37.950;145.008;2023-12-20T08:52:26;101685.52;;;18.57;40.84
54870;BME280;40756;-37.950;145.008;2023-12-20T08:54:56;101692.99;;;18.01;41.19
54870;BME280;40756;-37.950;145.008;2023-12-20T08:57:25;101686.47;;;17.74;41.22
54870;BME280;40756;-37.950;145.008;2023-12-20T08:59:55;101695.80;;;16.64;42.95
54870;BME280;40756;-37.950;145.008;2023-12-20T09:02:24;101691.77;;;16.94;42.45
54870;BME280;40756;-37.950;145.008;2023-12-20T09:04:54;101689.75;;;17.37;42.20
54870;BME280;40756;-37.950;145.008;2023-12-20T09:07:24;101694.14;;;18.15;41.33
54870;BME280;40756;-37.950;145.008;2023-12-20T09:09:54;101692.36;;;17.75;41.71
54870;BME280;40756;-37.950;145.008;2023-12-20T09:12:23;101685.44;;;17.75;41.70
54870;BME280;40756;-37.950;145.008;2023-12-20T09:14:53;101688.35;;;17.32;41.96
54870;BME280;40756;-37.950;145.008;2023-12-20T09:17:22;101690.23;;;17.57;41.85
54870;BME280;40756;-37.950;145.008;2023-12-20T09:20:28;101691.93;;;18.17;41.05
54870;BME280;40756;-37.950;145.008;2023-12-20T09:22:57;101694.00;;;16.74;42.71
54870;BME280;40756;-37.950;145.008;2023-12-20T09:25:26;101687.24;;;17.57;41.98
54870;BME280;40756;-37.950;145.008;2023-12-20T09:27:56;101691.87;;;17.49;42.29
54870;BME280;40756;-37.950;145.008;2023-12-20T09:30:25;101693.66;;;17.98;41.24
54870;BME280;40756;-37.950;145.008;2023-12-20T09:32:55;101695.85;;;16.96;42.57
54870;BME280;40756;-37.950;145.008;2023-12-20T09:35:24;101700.63;;;18.02;42.42
54870;BME280;40756;-37.950;145.008;2023-12-20T09:37:54;101703.83;;;17.13;43.32
54870;BME280;40756;-37.950;145.008;2023-12-20T09:40:25;101704.02;;;18.12;42.06
54870;BME280;40756;-37.950;145.008;2023-12-20T09:43:00;101711.79;;;16.91;42.63
54870;BME280;40756;-37.950;145.008;2023-12-20T09:45:32;101711.49;;;16.74;42.90
54870;BME280;40756;-37.950;145.008;2023-12-20T09:48:01;101718.66;;;16.61;42.98
54870;BME280;40756;-37.950;145.008;2023-12-20T09:50:32;101716.95;;;17.55;42.20
54870;BME280;40756;-37.950;145.008;2023-12-20T09:53:03;101715.57;;;17.73;41.59
54870;BME280;40756;-37.950;145.008;2023-12-20T09:55:34;101717.33;;;17.81;41.90
54870;BME280;40756;-37.950;145.008;2023-12-20T09:58:05;101724.15;;;17.18;42.85
54870;BME280;40756;-37.950;145.008;2023-12-20T10:00:34;101721.62;;;17.82;42.69
54870;BME280;40756;-37.950;145.008;2023-12-20T10:03:06;101732.75;;;17.90;42.68
54870;BME280;40756;-37.950;145.008;2023-12-20T10:05:35;101736.51;;;17.68;43.09
54870;BME280;40756;-37.950;145.008;2023-12-20T10:08:06;101736.89;;;16.78;44.42
54870;BME280;40756;-37.950;145.008;2023-12-20T10:10:35;101738.94;;;17.43;43.32
54870;BME280;40756;-37.950;145.008;2023-12-20T10:13:07;101744.81;;;17.48;43.79
54870;BME280;40756;-37.950;145.008;2023-12-20T10:15:37;101749.83;;;16.96;43.61
54870;BME280;40756;-37.950;145.008;2023-12-20T10:18:07;101750.91;;;17.15;44.19
54870;BME280;40756;-37.950;145.008;2023-12-20T10:20:36;101760.70;;;16.34;45.61
54870;BME280;40756;-37.950;145.008;2023-12-20T10:23:06;101757.40;;;17.54;44.23
54870;BME280;40756;-37.950;145.008;2023-12-20T10:25:35;101763.87;;;16.74;44.97
54870;BME280;40756;-37.950;145.008;2023-12-20T10:28:14;101765.55;;;16.91;44.96
54870;BME280;40756;-37.950;145.008;2023-12-20T10:30:43;101771.40;;;16.73;45.45
54870;BME280;40756;-37.950;145.008;2023-12-20T10:33:12;101770.24;;;18.58;42.44
54870;BME280;40756;-37.950;145.008;2023-12-20T10:35:42;101783.85;;;16.46;44.68
54870;BME280;40756;-37.950;145.008;2023-12-20T10:38:13;101786.18;;;17.07;44.82
54870;BME280;40756;-37.950;145.008;2023-12-20T10:40:44;101787.14;;;16.90;45.05
54870;BME280;40756;-37.950;145.008;2023-12-20T10:43:16;101792.74;;;17.49;43.91
54870;BME280;40756;-37.950;145.008;2023-12-20T10:45:45;101801.67;;;16.62;44.78
54870;BME280;40756;-37.950;145.008;2023-12-20T10:48:16;101802.07;;;17.87;43.38
54870;BME280;40756;-37.950;145.008;2023-12-20T10:50:45;101805.88;;;17.76;43.61
54870;BME280;40756;-37.950;145.008;2023-12-20T10:53:15;101805.01;;;18.41;42.02
54870;BME280;40756;-37.950;145.008;2023-12-20T10:55:45;101808.56;;;17.35;43.37
54870;BME280;40756;-37.950;145.008;2023-12-20T10:58:15;101809.56;;;16.95;44.14
54870;BME280;40756;-37.950;145.008;2023-12-20T11:00:46;101804.81;;;17.74;43.14
54870;BME280;40756;-37.950;145.008;2023-12-20T11:03:17;101811.03;;;17.73;43.66
54870;BME280;40756;-37.950;145.008;2023-12-20T11:05:58;101814.62;;;17.04;44.84
54870;BME280;40756;-37.950;145.008;2023-12-20T11:08:36;101816.34;;;17.05;45.20
54870;BME280;40756;-37.950;145.008;2023-12-20T11:11:12;101813.95;;;17.08;46.01
54870;BME280;40756;-37.950;145.008;2023-12-20T11:13:53;101822.91;;;16.38;47.70
54870;BME280;40756;-37.950;145.008;2023-12-20T11:16:24;101817.68;;;16.95;46.68
54870;BME280;40756;-37.950;145.008;2023-12-20T11:18:53;101823.83;;;16.58;47.51
54870;BME280;40756;-37.950;145.008;2023-12-20T11:21:23;101815.67;;;17.69;46.86
54870;BME280;40756;-37.950;145.008;2023-12-20T11:23:53;101815.07;;;16.86;47.31
54870;BME280;40756;-37.950;145.008;2023-12-20T11:26:28;101817.89;;;16.65;47.48
54870;BME280;40756;-37.950;145.008;2023-12-20T11:29:31;101823.33;;;17.40;47.23
54870;BME280;40756;-37.950;145.008;2023-12-20T11:32:02;101822.95;;;17.66;45.09
54870;BME280;40756;-37.950;145.008;2023-12-20T11:34:34;101828.92;;;17.20;46.16
54870;BME280;40756;-37.950;145.008;2023-12-20T11:37:05;101831.01;;;16.24;47.83
54870;BME280;40756;-37.950;145.008;2023-12-20T11:39:34;101836.17;;;15.42;49.57
54870;BME280;40756;-37.950;145.008;2023-12-20T11:42:06;101834.94;;;16.45;48.59
54870;BME280;40756;-37.950;145.008;2023-12-20T11:44:37;101835.38;;;15.43;51.17
54870;BME280;40756;-37.950;145.008;2023-12-20T11:47:08;101837.94;;;15.41;51.40
54870;BME280;40756;-37.950;145.008;2023-12-20T11:49:38;101829.70;;;16.42;50.10
54870;BME280;40756;-37.950;145.008;2023-12-20T11:52:07;101830.16;;;16.30;50.53
54870;BME280;40756;-37.950;145.008;2023-12-20T11:54:37;101829.52;;;15.62;51.39
54870;BME280;40756;-37.950;145.008;2023-12-20T11:57:06;101830.26;;;15.65;52.08
54870;BME280;40756;-37.950;145.008;2023-12-20T11:59:37;101833.27;;;15.88;52.69
54870;BME280;40756;-37.950;145.008;2023-12-20T12:02:07;101833.21;;;15.68;52.50
54870;BME280;40756;-37.950;145.008;2023-12-20T12:04:36;101830.23;;;16.06;51.60
54870;BME280;40756;-37.950;145.008;2023-12-20T12:07:06;101832.93;;;15.42;53.30
54870;BME280;40756;-37.950;145.008;2023-12-20T12:09:35;101832.11;;;16.52;50.63
54870;BME280;40756;-37.950;145.008;2023-12-20T12:12:05;101831.53;;;16.66;50.16
54870;BME280;40756;-37.950;145.008;2023-12-20T12:14:35;101835.24;;;16.02;51.26
54870;BME280;40756;-37.950;145.008;2023-12-20T12:17:05;101830.98;;;16.47;51.45
54870;BME280;40756;-37.950;145.008;2023-12-20T12:19:39;101829.27;;;16.64;50.60
54870;BME280;40756;-37.950;145.008;2023-12-20T12:22:09;101836.71;;;16.24;51.21
54870;BME280;40756;-37.950;145.008;2023-12-20T12:24:38;101831.11;;;15.22;53.88
54870;BME280;40756;-37.950;145.008;2023-12-20T12:27:08;101831.88;;;15.98;53.39
54870;BME280;40756;-37.950;145.008;2023-12-20T12:29:38;101831.51;;;16.36;51.99
54870;BME280;40756;-37.950;145.008;2023-12-20T12:32:09;101827.67;;;15.75;52.38
54870;BME280;40756;-37.950;145.008;2023-12-20T12:34:39;101827.21;;;15.99;52.65